Hakuhomaru — JJ4011 — position and weather

sailwx.info

Track history (hours):
 
Tides and Currents Weather Stations Pressure Air Temp Water Temp Dewpoint Dewpoint Depression Visibility Wind Speed Wind Dir Waves Ship Positions

Hakuhomaru

Last reported at 2014-Aug-02 02:32 UTC. Time now 2014-Aug-02 02:45 UTC.
Position N 34°41' E 135°17'.

Length 38 m; draft 3.3 m.

Type: Tug. MMSI: 431401584.

Date/timePositionNaut miles runAvg speedWind from/ knotsBaromVisibWave heightAir tempDewpointWater temp
2014-Aug-02 02:32N 34°41' E 135°17'7 6.4
2014-Aug-02 01:30N 34°39' E 135°25'6 6.7
2014-Aug-02 00:33N 34°41' E 135°17'4 3.9
2014-Aug-01 23:33N 34°41' E 135°12'0 0.0
2014-Aug-01 22:33N 34°41' E 135°12'0 0.0
2014-Jul-31 08:34N 34°41' E 135°12'4 3.8
2014-Jul-31 07:33N 34°41' E 135°17'1 0.5
2014-Jul-31 06:17N 34°42' E 135°18'0 0.6
2014-Jul-31 05:33N 34°41' E 135°17'4 3.6
2014-Jul-31 04:33N 34°41' E 135°13'1 1.4
2014-Jul-31 03:33N 34°41' E 135°14'2 1.6
2014-Jul-31 02:33N 34°41' E 135°12'0 0.0
2014-Jul-31 01:33N 34°41' E 135°12'0 0.0
2014-Jul-31 00:33N 34°41' E 135°12'0 0.1
2014-Jul-30 23:33N 34°40' E 135°12'3 3.4
2014-Jul-30 22:33N 34°39' E 135°16'3 3.3
2014-Jul-30 21:33N 34°41' E 135°12'0 0.0
2014-Jul-30 20:33N 34°41' E 135°12'2 0.2
2014-Jul-30 10:33N 34°41' E 135°14'10 8.5
2014-Jul-30 09:21N 34°38' E 135°26'3 3.4
2014-Jul-30 08:33N 34°38' E 135°23'8 8.5
2014-Jul-30 07:33N 34°41' E 135°13'1 1.0
2014-Jul-30 06:34N 34°41' E 135°12'0 0.0
2014-Jul-30 05:34N 34°41' E 135°12'0 0.0
2014-Jul-30 04:34N 34°41' E 135°12'0 0.0
2014-Jul-30 03:33N 34°41' E 135°12'0 0.0
2014-Jul-30 02:33N 34°41' E 135°12'0 0.0
2014-Jul-30 01:33N 34°41' E 135°12'0 0.0
2014-Jul-30 00:33N 34°41' E 135°12'0 0.0
2014-Jul-29 23:33N 34°41' E 135°12'0 0.0
2014-Jul-29 22:33N 34°41' E 135°12'0 0.0
2014-Jul-28 06:33N 34°41' E 135°12'0 0.0
2014-Jul-28 05:32N 34°41' E 135°12'2 1.8
2014-Jul-28 04:33N 34°41' E 135°14'2 2.3
2014-Jul-28 03:33N 34°41' E 135°17'4 3.9
2014-Jul-28 02:33N 34°41' E 135°12'0 0.0
2014-Jul-28 01:33N 34°41' E 135°12'0 0.0
2014-Jul-28 00:33N 34°41' E 135°12'0 0.0
2014-Jul-27 23:33N 34°41' E 135°12'0 0.0
2014-Jul-27 12:33N 34°40' E 135°12'2 1.8
2014-Jul-27 11:33N 34°40' E 135°14'0 0.0
2014-Jul-27 10:33N 34°40' E 135°14'0 0.0
2014-Jul-27 09:33N 34°40' E 135°14'1 0.9
2014-Jul-27 08:33N 34°41' E 135°15'1 1.3
2014-Jul-27 07:33N 34°40' E 135°13'0 0.0
2014-Jul-27 06:33N 34°40' E 135°13'1 1.5
2014-Jul-27 05:33N 34°40' E 135°15'0 0.0
2014-Jul-27 04:33N 34°40' E 135°15'1 0.9
2014-Jul-27 03:33N 34°41' E 135°16'3 2.5
2014-Jul-27 02:33N 34°41' E 135°13'3 3.1
2014-Jul-27 01:33N 34°42' E 135°16'2 2.2
2014-Jul-27 00:33N 34°41' E 135°18'1 0.7
2014-Jul-26 23:33N 34°40' E 135°18'1 0.6
2014-Jul-26 22:33N 34°41' E 135°18'2 2.2
2014-Jul-26 21:33N 34°41' E 135°15'2 2.3
2014-Jul-26 20:33N 34°41' E 135°12'0 0.0
2014-Jul-25 14:33N 34°41' E 135°12'3 2.7
2014-Jul-25 13:33N 34°42' E 135°15'0 0.1
2014-Jul-25 12:33N 34°42' E 135°15'2 1.9
2014-Jul-25 11:33N 34°40' E 135°14'1 0.5
2014-Jul-25 10:33N 34°40' E 135°15'0 0.0
2014-Jul-25 09:34N 34°40' E 135°15'3 2.8
2014-Jul-25 08:34N 34°42' E 135°17'4 3.6
2014-Jul-25 07:33N 34°41' E 135°13'0 0.0
2014-Jul-25 06:33N 34°41' E 135°13'0 0.0
2014-Jul-25 05:33N 34°41' E 135°13'0 0.0
2014-Jul-25 04:34N 34°41' E 135°13'4 3.6
2014-Jul-25 03:33N 34°41' E 135°17'1 0.7
2014-Jul-25 02:33N 34°41' E 135°16'3 2.6
2014-Jul-25 01:33N 34°40' E 135°13'0 0.0
2014-Jul-25 00:33N 34°40' E 135°13'1 1.0
2014-Jul-24 23:34N 34°40' E 135°14'2 1.7
2014-Jul-24 22:33N 34°39' E 135°16'2 2.1
2014-Jul-24 21:33N 34°41' E 135°14'2 1.5
2014-Jul-24 20:34N 34°41' E 135°12'0 0.0
2014-Jul-24 06:33N 34°41' E 135°12'0 0.0
2014-Jul-24 05:33N 34°41' E 135°12'4 4.2
2014-Jul-24 04:33N 34°41' E 135°17'4 4.1
2014-Jul-24 03:33N 34°41' E 135°12'0 0.4
2014-Jul-24 02:33N 34°41' E 135°12'0 0.0
2014-Jul-24 01:33N 34°41' E 135°12'0 0.0
2014-Jul-24 00:33N 34°41' E 135°12'0 0.0
2014-Jul-23 23:33N 34°41' E 135°12'0 0.0
2014-Jul-23 22:33N 34°41' E 135°12'1 1.1
2014-Jul-23 21:33N 34°40' E 135°13'1 1.2
2014-Jul-23 20:33N 34°40' E 135°12'0 0.2
2014-Jul-23 19:33N 34°41' E 135°12'0 0.0
2014-Jul-23 07:16N 34°41' E 135°12'2 3.4
2014-Jul-23 06:33N 34°39' E 135°15'2 2.4
2014-Jul-23 05:33N 34°41' E 135°12'0 0.0
2014-Jul-23 04:33N 34°41' E 135°12'0 0.0
2014-Jul-23 03:33N 34°41' E 135°12'0 0.0
2014-Jul-23 02:33N 34°41' E 135°12'  
Track history (hours):
 
Tides and Currents Weather Stations Pressure Air Temp Water Temp Dewpoint Dewpoint Depression Visibility Wind Speed Wind Dir Waves Ship Positions

Hakuhomaru

Last reported at 2014-Aug-02 02:32 UTC. Time now 2014-Aug-02 02:45 UTC.
Position N 34°41' E 135°17'.

Length 38 m; draft 3.3 m.

Type: Tug. MMSI: 431401584.

Date/timePositionNaut miles runAvg speedWind from/ knotsBaromVisibWave heightAir tempDewpointWater temp
2014-Aug-02 02:32N 34°41' E 135°17'7 6.4
2014-Aug-02 01:30N 34°39' E 135°25'6 6.7
2014-Aug-02 00:33N 34°41' E 135°17'4 3.9
2014-Aug-01 23:33N 34°41' E 135°12'0 0.0
2014-Aug-01 22:33N 34°41' E 135°12'0 0.0
2014-Jul-31 08:34N 34°41' E 135°12'4 3.8
2014-Jul-31 07:33N 34°41' E 135°17'1 0.5
2014-Jul-31 06:17N 34°42' E 135°18'0 0.6
2014-Jul-31 05:33N 34°41' E 135°17'4 3.6
2014-Jul-31 04:33N 34°41' E 135°13'1 1.4
2014-Jul-31 03:33N 34°41' E 135°14'2 1.6
2014-Jul-31 02:33N 34°41' E 135°12'0 0.0
2014-Jul-31 01:33N 34°41' E 135°12'0 0.0
2014-Jul-31 00:33N 34°41' E 135°12'0 0.1
2014-Jul-30 23:33N 34°40' E 135°12'3 3.4
2014-Jul-30 22:33N 34°39' E 135°16'3 3.3
2014-Jul-30 21:33N 34°41' E 135°12'0 0.0
2014-Jul-30 20:33N 34°41' E 135°12'2 0.2
2014-Jul-30 10:33N 34°41' E 135°14'10 8.5
2014-Jul-30 09:21N 34°38' E 135°26'3 3.4
2014-Jul-30 08:33N 34°38' E 135°23'8 8.5
2014-Jul-30 07:33N 34°41' E 135°13'1 1.0
2014-Jul-30 06:34N 34°41' E 135°12'0 0.0
2014-Jul-30 05:34N 34°41' E 135°12'0 0.0
2014-Jul-30 04:34N 34°41' E 135°12'0 0.0
2014-Jul-30 03:33N 34°41' E 135°12'0 0.0
2014-Jul-30 02:33N 34°41' E 135°12'0 0.0
2014-Jul-30 01:33N 34°41' E 135°12'0 0.0
2014-Jul-30 00:33N 34°41' E 135°12'0 0.0
2014-Jul-29 23:33N 34°41' E 135°12'0 0.0
2014-Jul-29 22:33N 34°41' E 135°12'0 0.0
2014-Jul-28 06:33N 34°41' E 135°12'0 0.0
2014-Jul-28 05:32N 34°41' E 135°12'2 1.8
2014-Jul-28 04:33N 34°41' E 135°14'2 2.3
2014-Jul-28 03:33N 34°41' E 135°17'4 3.9
2014-Jul-28 02:33N 34°41' E 135°12'0 0.0
2014-Jul-28 01:33N 34°41' E 135°12'0 0.0
2014-Jul-28 00:33N 34°41' E 135°12'0 0.0
2014-Jul-27 23:33N 34°41' E 135°12'0 0.0
2014-Jul-27 12:33N 34°40' E 135°12'2 1.8
2014-Jul-27 11:33N 34°40' E 135°14'0 0.0
2014-Jul-27 10:33N 34°40' E 135°14'0 0.0
2014-Jul-27 09:33N 34°40' E 135°14'1 0.9
2014-Jul-27 08:33N 34°41' E 135°15'1 1.3
2014-Jul-27 07:33N 34°40' E 135°13'0 0.0
2014-Jul-27 06:33N 34°40' E 135°13'1 1.5
2014-Jul-27 05:33N 34°40' E 135°15'0 0.0
2014-Jul-27 04:33N 34°40' E 135°15'1 0.9
2014-Jul-27 03:33N 34°41' E 135°16'3 2.5
2014-Jul-27 02:33N 34°41' E 135°13'3 3.1
2014-Jul-27 01:33N 34°42' E 135°16'2 2.2
2014-Jul-27 00:33N 34°41' E 135°18'1 0.7
2014-Jul-26 23:33N 34°40' E 135°18'1 0.6
2014-Jul-26 22:33N 34°41' E 135°18'2 2.2
2014-Jul-26 21:33N 34°41' E 135°15'2 2.3
2014-Jul-26 20:33N 34°41' E 135°12'0 0.0
2014-Jul-25 14:33N 34°41' E 135°12'3 2.7
2014-Jul-25 13:33N 34°42' E 135°15'0 0.1
2014-Jul-25 12:33N 34°42' E 135°15'2 1.9
2014-Jul-25 11:33N 34°40' E 135°14'1 0.5
2014-Jul-25 10:33N 34°40' E 135°15'0 0.0
2014-Jul-25 09:34N 34°40' E 135°15'3 2.8
2014-Jul-25 08:34N 34°42' E 135°17'4 3.6
2014-Jul-25 07:33N 34°41' E 135°13'0 0.0
2014-Jul-25 06:33N 34°41' E 135°13'0 0.0
2014-Jul-25 05:33N 34°41' E 135°13'0 0.0
2014-Jul-25 04:34N 34°41' E 135°13'4 3.6
2014-Jul-25 03:33N 34°41' E 135°17'1 0.7
2014-Jul-25 02:33N 34°41' E 135°16'3 2.6
2014-Jul-25 01:33N 34°40' E 135°13'0 0.0
2014-Jul-25 00:33N 34°40' E 135°13'1 1.0
2014-Jul-24 23:34N 34°40' E 135°14'2 1.7
2014-Jul-24 22:33N 34°39' E 135°16'2 2.1
2014-Jul-24 21:33N 34°41' E 135°14'2 1.5
2014-Jul-24 20:34N 34°41' E 135°12'0 0.0
2014-Jul-24 06:33N 34°41' E 135°12'0 0.0
2014-Jul-24 05:33N 34°41' E 135°12'4 4.2
2014-Jul-24 04:33N 34°41' E 135°17'4 4.1
2014-Jul-24 03:33N 34°41' E 135°12'0 0.4
2014-Jul-24 02:33N 34°41' E 135°12'0 0.0
2014-Jul-24 01:33N 34°41' E 135°12'0 0.0
2014-Jul-24 00:33N 34°41' E 135°12'0 0.0
2014-Jul-23 23:33N 34°41' E 135°12'0 0.0
2014-Jul-23 22:33N 34°41' E 135°12'1 1.1
2014-Jul-23 21:33N 34°40' E 135°13'1 1.2
2014-Jul-23 20:33N 34°40' E 135°12'0 0.2
2014-Jul-23 19:33N 34°41' E 135°12'0 0.0
2014-Jul-23 07:16N 34°41' E 135°12'2 3.4
2014-Jul-23 06:33N 34°39' E 135°15'2 2.4
2014-Jul-23 05:33N 34°41' E 135°12'0 0.0
2014-Jul-23 04:33N 34°41' E 135°12'0 0.0
2014-Jul-23 03:33N 34°41' E 135°12'0 0.0
2014-Jul-23 02:33N 34°41' E 135°12'  

Dump ship's entire track history